sensor_id;sensor_type;location;lat;lon;timestamp;pressure;altitude;pressure_sealevel;temperature;humidity
24666;BME280;29726;53.532;-1.478;2022-08-20T00:00:30;100487.06;;;21.25;nan
24666;BME280;29726;53.532;-1.478;2022-08-20T00:02:59;100490.97;;;21.22;nan
24666;BME280;29726;53.532;-1.478;2022-08-20T00:05:38;100486.38;;;21.19;nan
24666;BME280;29726;53.532;-1.478;2022-08-20T00:08:04;100485.63;;;21.19;nan
24666;BME280;29726;53.532;-1.478;2022-08-20T00:10:34;100480.03;;;21.13;nan
24666;BME280;29726;53.532;-1.478;2022-08-20T00:13:00;100481.09;;;21.10;nan
24666;BME280;29726;53.532;-1.478;2022-08-20T00:15:29;100482.84;;;21.13;nan
24666;BME280;29726;53.532;-1.478;2022-08-20T00:17:56;100482.63;;;21.11;nan
24666;BME280;29726;53.532;-1.478;2022-08-20T00:20:25;100483.16;;;21.10;nan
24666;BME280;29726;53.532;-1.478;2022-08-20T00:22:54;100455.38;;;20.90;nan
24666;BME280;29726;53.532;-1.478;2022-08-20T00:25:20;100478.34;;;21.05;nan
24666;BME280;29726;53.532;-1.478;2022-08-20T00:27:46;100474.75;;;21.04;nan
24666;BME280;29726;53.532;-1.478;2022-08-20T00:30:12;100476.81;;;21.04;nan
24666;BME280;29726;53.532;-1.478;2022-08-20T00:32:50;100468.63;;;21.00;nan
24666;BME280;29726;53.532;-1.478;2022-08-20T00:35:21;100471.22;;;20.98;nan
24666;BME280;29726;53.532;-1.478;2022-08-20T00:37:47;100465.09;;;20.94;nan
24666;BME280;29726;53.532;-1.478;2022-08-20T00:40:16;100468.72;;;20.95;nan
24666;BME280;29726;53.532;-1.478;2022-08-20T00:42:54;100460.72;;;20.93;nan
24666;BME280;29726;53.532;-1.478;2022-08-20T00:45:26;100457.66;;;20.91;nan
24666;BME280;29726;53.532;-1.478;2022-08-20T00:47:52;100457.44;;;20.89;nan
24666;BME280;29726;53.532;-1.478;2022-08-20T00:50:23;100451.53;;;20.87;nan
24666;BME280;29726;53.532;-1.478;2022-08-20T00:52:51;100442.31;;;20.81;nan
24666;BME280;29726;53.532;-1.478;2022-08-20T00:55:19;100445.63;;;20.85;nan
24666;BME280;29726;53.532;-1.478;2022-08-20T00:57:51;100437.72;;;20.78;nan
24666;BME280;29726;53.532;-1.478;2022-08-20T01:00:39;100442.31;;;20.81;nan
24666;BME280;29726;53.532;-1.478;2022-08-20T01:03:09;100433.59;;;20.79;nan
24666;BME280;29726;53.532;-1.478;2022-08-20T01:05:39;100431.56;;;20.74;nan
24666;BME280;29726;53.532;-1.478;2022-08-20T01:08:05;100427.22;;;20.73;nan
24666;BME280;29726;53.532;-1.478;2022-08-20T01:10:36;100429.53;;;20.75;nan
24666;BME280;29726;53.532;-1.478;2022-08-20T01:13:06;100411.34;;;20.65;nan
24666;BME280;29726;53.532;-1.478;2022-08-20T01:15:37;100419.34;;;20.66;nan
24666;BME280;29726;53.532;-1.478;2022-08-20T01:18:10;100421.09;;;20.69;nan
24666;BME280;29726;53.532;-1.478;2022-08-20T01:20:58;100421.41;;;20.66;nan
24666;BME280;29726;53.532;-1.478;2022-08-20T01:23:36;100422.69;;;20.65;nan
24666;BME280;29726;53.532;-1.478;2022-08-20T01:31:18;100419.97;;;20.59;nan
24666;BME280;29726;53.532;-1.478;2022-08-20T01:33:44;100426.72;;;20.56;nan
24666;BME280;29726;53.532;-1.478;2022-08-20T01:36:12;100414.16;;;20.52;nan
24666;BME280;29726;53.532;-1.478;2022-08-20T01:38:38;100406.94;;;20.51;nan
24666;BME280;29726;53.532;-1.478;2022-08-20T01:41:35;100426.25;;;20.52;nan
24666;BME280;29726;53.532;-1.478;2022-08-20T01:44:05;100418.06;;;20.49;nan
24666;BME280;29726;53.532;-1.478;2022-08-20T01:46:36;100426.56;;;20.49;nan
24666;BME280;29726;53.532;-1.478;2022-08-20T01:49:28;100422.19;;;20.48;nan
24666;BME280;29726;53.532;-1.478;2022-08-20T01:51:58;100417.38;;;20.43;nan
24666;BME280;29726;53.532;-1.478;2022-08-20T01:54:25;100427.41;;;20.44;nan
24666;BME280;29726;53.532;-1.478;2022-08-20T01:57:10;100425.09;;;20.42;nan
24666;BME280;29726;53.532;-1.478;2022-08-20T01:59:36;100416.38;;;20.40;nan
24666;BME280;29726;53.532;-1.478;2022-08-20T02:02:02;100389.34;;;20.21;nan
24666;BME280;29726;53.532;-1.478;2022-08-20T02:04:28;100405.44;;;20.31;nan
24666;BME280;29726;53.532;-1.478;2022-08-20T02:06:57;100412.31;;;20.36;nan
24666;BME280;29726;53.532;-1.478;2022-08-20T02:09:26;100404.34;;;20.34;nan
24666;BME280;29726;53.532;-1.478;2022-08-20T02:11:52;100398.59;;;20.22;nan
24666;BME280;29726;53.532;-1.478;2022-08-20T02:14:18;100400.13;;;20.23;nan
24666;BME280;29726;53.532;-1.478;2022-08-20T02:16:45;100412.16;;;20.28;nan
24666;BME280;29726;53.532;-1.478;2022-08-20T02:19:19;100409.88;;;20.27;nan
24666;BME280;29726;53.532;-1.478;2022-08-20T02:21:49;100401.97;;;20.20;nan
24666;BME280;29726;53.532;-1.478;2022-08-20T02:24:15;100404.50;;;20.23;nan
24666;BME280;29726;53.532;-1.478;2022-08-20T02:26:41;100409.41;;;20.23;nan
24666;BME280;29726;53.532;-1.478;2022-08-20T02:29:09;100390.16;;;20.16;nan
24666;BME280;29726;53.532;-1.478;2022-08-20T02:31:36;100404.03;;;20.20;nan
24666;BME280;29726;53.532;-1.478;2022-08-20T02:34:03;100400.19;;;20.17;nan
24666;BME280;29726;53.532;-1.478;2022-08-20T02:36:29;100389.72;;;20.12;nan
24666;BME280;29726;53.532;-1.478;2022-08-20T02:38:54;100393.53;;;20.15;nan
24666;BME280;29726;53.532;-1.478;2022-08-20T02:41:20;100380.69;;;20.14;nan
24666;BME280;29726;53.532;-1.478;2022-08-20T02:43:46;100370.72;;;20.07;nan
24666;BME280;29726;53.532;-1.478;2022-08-20T02:46:12;100366.28;;;20.12;nan
24666;BME280;29726;53.532;-1.478;2022-08-20T02:48:40;100355.75;;;20.07;nan
24666;BME280;29726;53.532;-1.478;2022-08-20T02:51:07;100363.50;;;20.06;nan
24666;BME280;29726;53.532;-1.478;2022-08-20T02:53:36;100363.50;;;20.06;nan
24666;BME280;29726;53.532;-1.478;2022-08-20T02:56:04;100359.44;;;20.02;nan
24666;BME280;29726;53.532;-1.478;2022-08-20T02:58:30;100348.00;;;19.89;nan
24666;BME280;29726;53.532;-1.478;2022-08-20T03:00:57;100371.25;;;20.06;nan
24666;BME280;29726;53.532;-1.478;2022-08-20T03:03:22;100366.88;;;20.05;nan
24666;BME280;29726;53.532;-1.478;2022-08-20T03:05:54;100363.28;;;20.04;nan
24666;BME280;29726;53.532;-1.478;2022-08-20T03:08:21;100373.63;;;20.02;nan
24666;BME280;29726;53.532;-1.478;2022-08-20T03:10:48;100366.38;;;20.01;nan
24666;BME280;29726;53.532;-1.478;2022-08-20T03:13:14;100354.38;;;19.95;nan
24666;BME280;29726;53.532;-1.478;2022-08-20T03:15:46;100366.16;;;19.99;nan
24666;BME280;29726;53.532;-1.478;2022-08-20T03:18:13;100351.53;;;19.95;nan
24666;BME280;29726;53.532;-1.478;2022-08-20T03:20:39;100357.19;;;19.95;nan
24666;BME280;29726;53.532;-1.478;2022-08-20T03:23:05;100348.25;;;19.91;nan
24666;BME280;29726;53.532;-1.478;2022-08-20T03:25:31;100353.59;;;19.94;nan
24666;BME280;29726;53.532;-1.478;2022-08-20T03:27:57;100347.91;;;19.94;nan
24666;BME280;29726;53.532;-1.478;2022-08-20T03:30:25;100346.16;;;19.91;nan
24666;BME280;29726;53.532;-1.478;2022-08-20T03:32:51;100333.06;;;19.88;nan
24666;BME280;29726;53.532;-1.478;2022-08-20T03:35:18;100336.13;;;19.90;nan
24666;BME280;29726;53.532;-1.478;2022-08-20T03:37:44;100333.06;;;19.88;nan
24666;BME280;29726;53.532;-1.478;2022-08-20T03:40:13;100331.75;;;19.89;nan
24666;BME280;29726;53.532;-1.478;2022-08-20T03:42:40;100325.13;;;19.87;nan
24666;BME280;29726;53.532;-1.478;2022-08-20T03:45:07;100334.38;;;19.87;nan
24666;BME280;29726;53.532;-1.478;2022-08-20T03:47:33;100322.66;;;19.78;nan
24666;BME280;29726;53.532;-1.478;2022-08-20T03:50:00;100334.13;;;19.85;nan
24666;BME280;29726;53.532;-1.478;2022-08-20T03:52:26;100331.09;;;19.83;nan
24666;BME280;29726;53.532;-1.478;2022-08-20T03:54:54;100327.25;;;19.81;nan
24666;BME280;29726;53.532;-1.478;2022-08-20T03:57:19;100332.91;;;19.81;nan
24666;BME280;29726;53.532;-1.478;2022-08-20T03:59:45;100332.69;;;19.79;nan
24666;BME280;29726;53.532;-1.478;2022-08-20T04:02:11;100329.63;;;19.77;nan
24666;BME280;29726;53.532;-1.478;2022-08-20T04:04:38;100321.66;;;19.75;nan
24666;BME280;29726;53.532;-1.478;2022-08-20T04:07:12;100322.97;;;19.74;nan
24666;BME280;29726;53.532;-1.478;2022-08-20T04:09:39;100321.44;;;19.73;nan
24666;BME280;29726;53.532;-1.478;2022-08-20T04:12:05;100315.22;;;19.75;nan
24666;BME280;29726;53.532;-1.478;2022-08-20T04:14:32;100318.84;;;19.75;nan
24666;BME280;29726;53.532;-1.478;2022-08-20T04:17:04;100330.16;;;19.75;nan
24666;BME280;29726;53.532;-1.478;2022-08-20T04:19:30;100316.28;;;19.72;nan
24666;BME280;29726;53.532;-1.478;2022-08-20T04:21:55;100320.66;;;19.73;nan
24666;BME280;29726;53.532;-1.478;2022-08-20T04:24:20;100307.78;;;19.72;nan
24666;BME280;29726;53.532;-1.478;2022-08-20T04:26:46;100316.81;;;19.70;nan
24666;BME280;29726;53.532;-1.478;2022-08-20T04:29:12;100313.28;;;19.64;nan
24666;BME280;29726;53.532;-1.478;2022-08-20T04:31:37;100308.41;;;19.65;nan
24666;BME280;29726;53.532;-1.478;2022-08-20T04:34:04;100324.34;;;19.68;nan
24666;BME280;29726;53.532;-1.478;2022-08-20T04:36:32;100318.66;;;19.68;nan
24666;BME280;29726;53.532;-1.478;2022-08-20T04:38:59;100316.59;;;19.68;nan
24666;BME280;29726;53.532;-1.478;2022-08-20T04:41:25;100310.16;;;19.68;nan
24666;BME280;29726;53.532;-1.478;2022-08-20T04:43:52;100306.66;;;19.62;nan
24666;BME280;29726;53.532;-1.478;2022-08-20T04:46:19;100319.19;;;19.66;nan
24666;BME280;29726;53.532;-1.478;2022-08-20T04:48:44;100318.50;;;19.60;nan
24666;BME280;29726;53.532;-1.478;2022-08-20T04:51:10;100321.28;;;19.66;nan
24666;BME280;29726;53.532;-1.478;2022-08-20T04:53:39;100322.09;;;19.61;nan
24666;BME280;29726;53.532;-1.478;2022-08-20T04:56:05;100328.25;;;19.65;nan
24666;BME280;29726;53.532;-1.478;2022-08-20T04:58:34;100327.75;;;19.61;nan
24666;BME280;29726;53.532;-1.478;2022-08-20T05:01:03;100325.19;;;19.63;nan
24666;BME280;29726;53.532;-1.478;2022-08-20T05:03:30;100328.00;;;19.63;nan
24666;BME280;29726;53.532;-1.478;2022-08-20T05:05:56;100333.69;;;19.63;nan
24666;BME280;29726;53.532;-1.478;2022-08-20T05:08:23;100336.25;;;19.61;nan
24666;BME280;29726;53.532;-1.478;2022-08-20T05:10:50;100335.50;;;19.60;nan
24666;BME280;29726;53.532;-1.478;2022-08-20T05:13:17;100332.44;;;19.58;nan
24666;BME280;29726;53.532;-1.478;2022-08-20T05:15:43;100339.63;;;19.59;nan
24666;BME280;29726;53.532;-1.478;2022-08-20T05:18:10;100339.63;;;19.59;nan
24666;BME280;29726;53.532;-1.478;2022-08-20T05:20:41;100344.50;;;19.59;nan
24666;BME280;29726;53.532;-1.478;2022-08-20T05:23:08;100338.94;;;19.53;nan
24666;BME280;29726;53.532;-1.478;2022-08-20T05:25:35;100333.41;;;19.42;nan
24666;BME280;29726;53.532;-1.478;2022-08-20T05:28:38;100347.91;;;19.57;nan
24666;BME280;29726;53.532;-1.478;2022-08-20T05:30:58;100341.00;;;19.53;nan
24666;BME280;29726;53.532;-1.478;2022-08-20T05:33:24;100346.38;;;19.56;nan
24666;BME280;29726;53.532;-1.478;2022-08-20T05:35:52;100348.41;;;19.56;nan
24666;BME280;29726;53.532;-1.478;2022-08-20T05:38:20;100342.53;;;19.54;nan
24666;BME280;29726;53.532;-1.478;2022-08-20T05:40:46;100341.78;;;19.53;nan
24666;BME280;29726;53.532;-1.478;2022-08-20T05:43:13;100334.09;;;19.48;nan
24666;BME280;29726;53.532;-1.478;2022-08-20T05:45:40;100333.78;;;19.52;nan
24666;BME280;29726;53.532;-1.478;2022-08-20T05:48:07;100338.94;;;19.53;nan
24666;BME280;29726;53.532;-1.478;2022-08-20T05:50:35;100332.28;;;19.51;nan
24666;BME280;29726;53.532;-1.478;2022-08-20T05:53:00;100341.00;;;19.53;nan
24666;BME280;29726;53.532;-1.478;2022-08-20T05:55:27;100338.72;;;19.51;nan
24666;BME280;29726;53.532;-1.478;2022-08-20T05:57:57;100345.69;;;19.50;nan
24666;BME280;29726;53.532;-1.478;2022-08-20T06:00:23;100328.28;;;19.41;nan
24666;BME280;29726;53.532;-1.478;2022-08-20T06:02:48;100340.53;;;19.49;nan
24666;BME280;29726;53.532;-1.478;2022-08-20T06:05:32;100354.16;;;19.50;nan
24666;BME280;29726;53.532;-1.478;2022-08-20T06:07:58;100354.16;;;19.50;nan
24666;BME280;29726;53.532;-1.478;2022-08-20T06:10:24;100352.09;;;19.51;nan
24666;BME280;29726;53.532;-1.478;2022-08-20T06:12:49;100335.66;;;19.49;nan
24666;BME280;29726;53.532;-1.478;2022-08-20T06:15:18;100340.75;;;19.51;nan
24666;BME280;29726;53.532;-1.478;2022-08-20T06:17:43;100303.69;;;19.30;nan
24666;BME280;29726;53.532;-1.478;2022-08-20T06:20:09;100331.50;;;19.50;nan
24666;BME280;29726;53.532;-1.478;2022-08-20T06:22:35;100331.75;;;19.52;nan
24666;BME280;29726;53.532;-1.478;2022-08-20T06:25:03;100329.44;;;19.51;nan
24666;BME280;29726;53.532;-1.478;2022-08-20T06:27:29;100328.41;;;19.48;nan
24666;BME280;29726;53.532;-1.478;2022-08-20T06:29:54;100322.31;;;19.44;nan
24666;BME280;29726;53.532;-1.478;2022-08-20T06:32:20;100303.69;;;19.30;nan
24666;BME280;29726;53.532;-1.478;2022-08-20T06:34:49;100334.56;;;19.52;nan
24666;BME280;29726;53.532;-1.478;2022-08-20T06:37:26;100330.97;;;19.52;nan
24666;BME280;29726;53.532;-1.478;2022-08-20T06:39:52;100325.69;;;19.43;nan
24666;BME280;29726;53.532;-1.478;2022-08-20T06:42:19;100328.91;;;19.52;nan
24666;BME280;29726;53.532;-1.478;2022-08-20T06:44:46;100325.31;;;19.52;nan
24666;BME280;29726;53.532;-1.478;2022-08-20T06:47:15;100315.28;;;19.51;nan
24666;BME280;29726;53.532;-1.478;2022-08-20T06:49:42;100307.56;;;19.51;nan
24666;BME280;29726;53.532;-1.478;2022-08-20T06:52:07;100319.13;;;19.53;nan
24666;BME280;29726;53.532;-1.478;2022-08-20T06:54:33;100305.72;;;19.54;nan
24666;BME280;29726;53.532;-1.478;2022-08-20T06:57:02;100298.75;;;19.55;nan
24666;BME280;29726;53.532;-1.478;2022-08-20T06:59:28;100302.88;;;19.54;nan
24666;BME280;29726;53.532;-1.478;2022-08-20T07:01:54;100294.63;;;19.56;nan
24666;BME280;29726;53.532;-1.478;2022-08-20T07:04:22;100278.69;;;19.53;nan
24666;BME280;29726;53.532;-1.478;2022-08-20T07:06:49;100286.13;;;19.56;nan
24666;BME280;29726;53.532;-1.478;2022-08-20T07:09:16;100288.94;;;19.56;nan
24666;BME280;29726;53.532;-1.478;2022-08-20T07:11:42;100281.97;;;19.57;nan
24666;BME280;29726;53.532;-1.478;2022-08-20T07:14:08;100275.00;;;19.58;nan
24666;BME280;29726;53.532;-1.478;2022-08-20T07:16:33;100288.66;;;19.59;nan
24666;BME280;29726;53.532;-1.478;2022-08-20T07:18:58;100283.44;;;19.63;nan
24666;BME280;29726;53.532;-1.478;2022-08-20T07:21:24;100286.50;;;19.65;nan
24666;BME280;29726;53.532;-1.478;2022-08-20T07:23:49;100276.78;;;19.61;nan
24666;BME280;29726;53.532;-1.478;2022-08-20T07:26:16;100288.81;;;19.67;nan
24666;BME280;29726;53.532;-1.478;2022-08-20T07:28:41;100287.28;;;19.66;nan
24666;BME280;29726;53.532;-1.478;2022-08-20T07:31:06;100278.22;;;19.67;nan
24666;BME280;29726;53.532;-1.478;2022-08-20T07:33:50;100284.13;;;19.69;nan
24666;BME280;29726;53.532;-1.478;2022-08-20T07:36:16;100292.56;;;19.75;nan
24666;BME280;29726;53.532;-1.478;2022-08-20T07:38:42;100277.38;;;19.72;nan
24666;BME280;29726;53.532;-1.478;2022-08-20T07:41:11;100271.50;;;19.70;nan
24666;BME280;29726;53.532;-1.478;2022-08-20T07:43:39;100279.94;;;19.76;nan
24666;BME280;29726;53.532;-1.478;2022-08-20T07:46:06;100291.94;;;19.82;nan
24666;BME280;29726;53.532;-1.478;2022-08-20T07:48:38;100297.06;;;19.83;nan
24666;BME280;29726;53.532;-1.478;2022-08-20T07:51:05;100295.25;;;19.86;nan
24666;BME280;29726;53.532;-1.478;2022-08-20T07:53:32;100294.69;;;19.87;nan
24666;BME280;29726;53.532;-1.478;2022-08-20T07:55:59;100294.19;;;19.89;nan
24666;BME280;29726;53.532;-1.478;2022-08-20T07:58:25;100303.66;;;19.91;nan
24666;BME280;29726;53.532;-1.478;2022-08-20T08:00:51;100302.34;;;19.92;nan
24666;BME280;29726;53.532;-1.478;2022-08-20T08:03:17;100299.84;;;19.89;nan
24666;BME280;29726;53.532;-1.478;2022-08-20T08:05:45;100285.91;;;19.91;nan
24666;BME280;29726;53.532;-1.478;2022-08-20T08:08:16;100299.66;;;20.00;nan
24666;BME280;29726;53.532;-1.478;2022-08-20T08:10:45;100304.84;;;20.01;nan
24666;BME280;29726;53.532;-1.478;2022-08-20T08:13:12;100279.22;;;20.07;nan
24666;BME280;29726;53.532;-1.478;2022-08-20T08:15:45;100278.25;;;20.04;nan
24666;BME280;29726;53.532;-1.478;2022-08-20T08:18:15;100260.16;;;20.07;nan
24666;BME280;29726;53.532;-1.478;2022-08-20T08:20:43;100263.44;;;20.11;nan
24666;BME280;29726;53.532;-1.478;2022-08-20T08:23:10;100253.88;;;20.14;nan
24666;BME280;29726;53.532;-1.478;2022-08-20T08:25:40;100258.16;;;20.21;nan
24666;BME280;29726;53.532;-1.478;2022-08-20T08:28:11;100249.19;;;20.17;nan
24666;BME280;29726;53.532;-1.478;2022-08-20T08:30:38;100264.25;;;20.24;nan
24666;BME280;29726;53.532;-1.478;2022-08-20T08:33:05;100263.19;;;20.27;nan
24666;BME280;29726;53.532;-1.478;2022-08-20T08:35:49;100272.38;;;20.33;nan
24666;BME280;29726;53.532;-1.478;2022-08-20T08:38:15;100263.53;;;20.37;nan
24666;BME280;29726;53.532;-1.478;2022-08-20T08:40:41;100263.44;;;20.42;nan
24666;BME280;29726;53.532;-1.478;2022-08-20T08:43:10;100263.69;;;20.44;nan
24666;BME280;29726;53.532;-1.478;2022-08-20T08:45:42;100257.13;;;20.49;nan
24666;BME280;29726;53.532;-1.478;2022-08-20T08:48:15;100247.78;;;20.54;nan
24666;BME280;29726;53.532;-1.478;2022-08-20T08:50:44;100254.13;;;20.60;nan
24666;BME280;29726;53.532;-1.478;2022-08-20T08:53:18;100246.78;;;20.65;nan
24666;BME280;29726;53.532;-1.478;2022-08-20T08:55:45;100232.94;;;20.61;nan
24666;BME280;29726;53.532;-1.478;2022-08-20T08:58:10;100228.06;;;20.75;nan
24666;BME280;29726;53.532;-1.478;2022-08-20T09:00:36;100221.81;;;20.76;nan
24666;BME280;29726;53.532;-1.478;2022-08-20T09:03:05;100217.28;;;20.86;nan
24666;BME280;29726;53.532;-1.478;2022-08-20T09:05:44;100209.22;;;20.90;nan
24666;BME280;29726;53.532;-1.478;2022-08-20T09:08:14;100207.56;;;20.95;nan
24666;BME280;29726;53.532;-1.478;2022-08-20T09:10:42;100213.91;;;21.01;nan
24666;BME280;29726;53.532;-1.478;2022-08-20T09:13:09;100213.56;;;21.04;nan
24666;BME280;29726;53.532;-1.478;2022-08-20T09:15:34;100180.72;;;20.96;nan
24666;BME280;29726;53.532;-1.478;2022-08-20T09:18:00;100204.06;;;21.15;nan
24666;BME280;29726;53.532;-1.478;2022-08-20T09:20:26;100172.31;;;21.03;nan
24666;BME280;29726;53.532;-1.478;2022-08-20T09:22:52;100190.72;;;21.23;nan
24666;BME280;29726;53.532;-1.478;2022-08-20T09:25:18;100189.09;;;21.27;nan
24666;BME280;29726;53.532;-1.478;2022-08-20T09:27:44;100189.94;;;21.35;nan
24666;BME280;29726;53.532;-1.478;2022-08-20T09:30:10;100187.31;;;21.37;nan
24666;BME280;29726;53.532;-1.478;2022-08-20T09:32:36;100199.50;;;21.45;nan
24666;BME280;29726;53.532;-1.478;2022-08-20T09:35:02;100206.41;;;21.50;nan
24666;BME280;29726;53.532;-1.478;2022-08-20T09:37:30;100202.25;;;21.51;nan
24666;BME280;29726;53.532;-1.478;2022-08-20T09:39:55;100198.28;;;21.54;nan
24666;BME280;29726;53.532;-1.478;2022-08-20T09:42:27;100214.94;;;21.63;nan
24666;BME280;29726;53.532;-1.478;2022-08-20T09:44:53;100202.44;;;21.66;nan
24666;BME280;29726;53.532;-1.478;2022-08-20T09:47:18;100215.75;;;21.71;nan
24666;BME280;29726;53.532;-1.478;2022-08-20T09:49:44;100191.50;;;21.70;nan
24666;BME280;29726;53.532;-1.478;2022-08-20T09:52:19;100187.56;;;21.73;nan
24666;BME280;29726;53.532;-1.478;2022-08-20T09:54:47;100193.53;;;21.82;nan
24666;BME280;29726;53.532;-1.478;2022-08-20T09:57:14;100189.78;;;21.87;nan
24666;BME280;29726;53.532;-1.478;2022-08-20T09:59:40;100192.09;;;21.89;nan
24666;BME280;29726;53.532;-1.478;2022-08-20T10:02:05;100173.16;;;21.91;nan
24666;BME280;29726;53.532;-1.478;2022-08-20T10:04:31;100187.94;;;21.90;nan
24666;BME280;29726;53.532;-1.478;2022-08-20T10:06:56;100181.97;;;22.00;nan
24666;BME280;29726;53.532;-1.478;2022-08-20T10:09:22;100146.53;;;21.81;nan
24666;BME280;29726;53.532;-1.478;2022-08-20T10:11:48;100183.00;;;22.10;nan
24666;BME280;29726;53.532;-1.478;2022-08-20T10:14:13;100184.88;;;22.08;nan
24666;BME280;29726;53.532;-1.478;2022-08-20T10:16:38;100185.38;;;22.19;nan
24666;BME280;29726;53.532;-1.478;2022-08-20T10:19:04;100179.34;;;22.23;nan
24666;BME280;29726;53.532;-1.478;2022-08-20T10:21:31;100189.03;;;22.27;nan
24666;BME280;29726;53.532;-1.478;2022-08-20T10:23:57;100176.13;;;22.26;nan
24666;BME280;29726;53.532;-1.478;2022-08-20T10:26:23;100168.78;;;22.31;nan
24666;BME280;29726;53.532;-1.478;2022-08-20T10:28:49;100184.81;;;22.41;nan
24666;BME280;29726;53.532;-1.478;2022-08-20T10:31:14;100175.38;;;22.46;nan
24666;BME280;29726;53.532;-1.478;2022-08-20T10:33:40;100169.34;;;22.50;nan
24666;BME280;29726;53.532;-1.478;2022-08-20T10:36:12;100169.53;;;22.52;nan
24666;BME280;29726;53.532;-1.478;2022-08-20T10:38:38;100149.34;;;22.42;nan
24666;BME280;29726;53.532;-1.478;2022-08-20T10:41:04;100174.94;;;22.63;nan
24666;BME280;29726;53.532;-1.478;2022-08-20T10:43:29;100171.53;;;22.64;nan
24666;BME280;29726;53.532;-1.478;2022-08-20T10:45:55;100165.69;;;22.70;nan
24666;BME280;29726;53.532;-1.478;2022-08-20T10:48:20;100151.41;;;22.62;nan
24666;BME280;29726;53.532;-1.478;2022-08-20T10:50:46;100178.28;;;22.82;nan
24666;BME280;29726;53.532;-1.478;2022-08-20T10:53:11;100161.56;;;22.78;nan
24666;BME280;29726;53.532;-1.478;2022-08-20T10:55:37;100168.25;;;22.88;nan
24666;BME280;29726;53.532;-1.478;2022-08-20T10:58:06;100178.16;;;22.95;nan
24666;BME280;29726;53.532;-1.478;2022-08-20T11:00:33;100180.88;;;23.00;nan
24666;BME280;29726;53.532;-1.478;2022-08-20T11:02:58;100176.69;;;23.01;nan
24666;BME280;29726;53.532;-1.478;2022-08-20T11:05:24;100191.72;;;23.09;nan
24666;BME280;29726;53.532;-1.478;2022-08-20T11:07:49;100200.69;;;23.13;nan
24666;BME280;29726;53.532;-1.478;2022-08-20T11:10:15;100193.31;;;23.18;nan
24666;BME280;29726;53.532;-1.478;2022-08-20T11:12:41;100184.97;;;23.20;nan
24666;BME280;29726;53.532;-1.478;2022-08-20T11:15:07;100196.41;;;23.27;nan
24666;BME280;29726;53.532;-1.478;2022-08-20T11:17:34;100193.16;;;23.31;nan
24666;BME280;29726;53.532;-1.478;2022-08-20T11:20:01;100196.44;;;23.35;nan
24666;BME280;29726;53.532;-1.478;2022-08-20T11:22:28;100202.16;;;23.35;nan
24666;BME280;29726;53.532;-1.478;2022-08-20T11:24:54;100203.13;;;23.45;nan
24666;BME280;29726;53.532;-1.478;2022-08-20T11:27:32;100194.03;;;23.46;nan
24666;BME280;29726;53.532;-1.478;2022-08-20T11:29:58;100203.34;;;23.54;nan
24666;BME280;29726;53.532;-1.478;2022-08-20T11:32:24;100222.16;;;23.57;nan
24666;BME280;29726;53.532;-1.478;2022-08-20T11:34:50;100209.84;;;23.62;nan
24666;BME280;29726;53.532;-1.478;2022-08-20T11:37:17;100216.88;;;23.69;nan
24666;BME280;29726;53.532;-1.478;2022-08-20T11:39:43;100219.00;;;23.68;nan
24666;BME280;29726;53.532;-1.478;2022-08-20T11:42:09;100211.03;;;23.74;nan
24666;BME280;29726;53.532;-1.478;2022-08-20T11:44:34;100208.56;;;23.78;nan
24666;BME280;29726;53.532;-1.478;2022-08-20T11:47:02;100212.59;;;23.83;nan
24666;BME280;29726;53.532;-1.478;2022-08-20T11:49:32;100219.06;;;23.90;nan
24666;BME280;29726;53.532;-1.478;2022-08-20T11:51:58;100197.78;;;23.91;nan
24666;BME280;29726;53.532;-1.478;2022-08-20T11:54:23;100209.38;;;23.93;nan
24666;BME280;29726;53.532;-1.478;2022-08-20T11:56:49;100208.63;;;24.00;nan
24666;BME280;29726;53.532;-1.478;2022-08-20T11:59:15;100212.63;;;24.05;nan
24666;BME280;29726;53.532;-1.478;2022-08-20T12:01:41;100233.38;;;24.13;nan
24666;BME280;29726;53.532;-1.478;2022-08-20T12:04:07;100229.41;;;24.16;nan
24666;BME280;29726;53.532;-1.478;2022-08-20T12:06:33;100224.81;;;24.20;nan
24666;BME280;29726;53.532;-1.478;2022-08-20T12:08:58;100233.75;;;24.24;nan
24666;BME280;29726;53.532;-1.478;2022-08-20T12:11:24;100235.31;;;24.33;nan
24666;BME280;29726;53.532;-1.478;2022-08-20T12:13:49;100206.00;;;24.17;nan
24666;BME280;29726;53.532;-1.478;2022-08-20T12:16:17;100230.38;;;24.41;nan
24666;BME280;29726;53.532;-1.478;2022-08-20T12:18:43;100231.50;;;24.45;nan
24666;BME280;29726;53.532;-1.478;2022-08-20T12:21:08;100239.69;;;24.49;nan
24666;BME280;29726;53.532;-1.478;2022-08-20T12:23:34;100247.53;;;24.56;nan
24666;BME280;29726;53.532;-1.478;2022-08-20T12:25:59;100236.69;;;24.54;nan
24666;BME280;29726;53.532;-1.478;2022-08-20T12:28:30;100245.44;;;24.64;nan
24666;BME280;29726;53.532;-1.478;2022-08-20T12:30:56;100243.72;;;24.68;nan
24666;BME280;29726;53.532;-1.478;2022-08-20T12:33:21;100231.72;;;24.70;nan
24666;BME280;29726;53.532;-1.478;2022-08-20T12:35:47;100241.63;;;24.76;nan
24666;BME280;29726;53.532;-1.478;2022-08-20T12:38:12;100232.84;;;24.82;nan
24666;BME280;29726;53.532;-1.478;2022-08-20T12:40:38;100246.38;;;24.81;nan
24666;BME280;29726;53.532;-1.478;2022-08-20T12:43:04;100234.56;;;24.85;nan
24666;BME280;29726;53.532;-1.478;2022-08-20T12:45:31;100237.22;;;24.90;nan
24666;BME280;29726;53.532;-1.478;2022-08-20T12:48:09;100244.44;;;24.99;nan
24666;BME280;29726;53.532;-1.478;2022-08-20T12:50:37;100243.47;;;25.04;nan
24666;BME280;29726;53.532;-1.478;2022-08-20T12:53:03;100256.63;;;25.07;nan
24666;BME280;29726;53.532;-1.478;2022-08-20T12:55:29;100246.31;;;25.11;nan
24666;BME280;29726;53.532;-1.478;2022-08-20T12:57:57;100244.81;;;25.10;nan
24666;BME280;29726;53.532;-1.478;2022-08-20T13:00:32;100254.34;;;25.20;nan
24666;BME280;29726;53.532;-1.478;2022-08-20T13:02:59;100256.06;;;25.23;nan
24666;BME280;29726;53.532;-1.478;2022-08-20T13:05:28;100265.75;;;25.28;nan
24666;BME280;29726;53.532;-1.478;2022-08-20T13:07:53;100252.97;;;25.29;nan